Flight Track Log - Related Links

Times and Time Zones

All times are in EDT time to prevent confusion due to time zone crossing. See the TRS18 flight status page for this flight to view local times or setup timezone preferences in your user account.

Time Position Orientation Groundspeed Altitude Reporting Facility
EDT Latitude Longitude Course Direction KTS MPH feet Rate Location/Type
Sun 10:30:56 PM 33.6333 -84.3833 168° South 189 217 2,900  Level Atlanta TRACON
Sun 10:31:50 PM 33.6167 -84.3167 107° East 264 304 5,300 3,078 Climbing Atlanta TRACON
Sun 10:33:30 PM 33.5017 -84.2781 164° South 291 335 10,800 2,738 Climbing Atlanta Center
Sun 10:34:30 PM 33.4078 -84.2803 181° South 299 344 12,600 1,700 Climbing Atlanta Center
Sun 10:35:30 PM 33.3161 -84.2625 171° South 349 402 14,200 1,900 Climbing Atlanta Center
Sun 10:36:00 PM 33.2292 -84.2281 168° South  Level FlightAware Approximate
Sun 10:36:30 PM 33.2033 -84.2325 167° South 395 455 16,400  Level Atlanta Center
Sun 10:37:30 PM 33.0908 -84.2025 167° South 420 483 19,000 2,300 Climbing Atlanta Center
Sun 10:38:30 PM 32.9717 -84.1650 165° South 426 490 21,000 1,950 Climbing Atlanta Center
Sun 10:39:30 PM 32.8528 -84.1206 163° South 438 504 22,900 1,700 Climbing Atlanta Center
Sun 10:40:30 PM 32.7339 -84.0636 158° South 449 517 24,400 1,500 Climbing Atlanta Center
Sun 10:41:30 PM 32.6044 -84.0142 162° South 468 539 25,900 1,550 Climbing Atlanta Center
Sun 10:42:30 PM 32.4792 -83.9600 160° South 479 551 27,500 1,650 Climbing Atlanta Center
Sun 10:43:30 PM 32.3497 -83.9086 161° South 484 557 29,200 1,650 Climbing Atlanta Center
Sun 10:44:30 PM 32.2222 -83.8572 161° South 484 557 30,800 1,569 Climbing Atlanta Center
Sun 10:46:03 PM 32.0256 -83.7747 160° South 477 549 33,200 1,529 Climbing Jacksonville Center
Sun 10:47:03 PM 31.8986 -83.7222 161° South 483 556 34,700 893 Climbing Jacksonville Center
Sun 10:48:04 PM 31.7717 -83.6722 161° South 483 556 35,000 149 Climbing Jacksonville Center
Sun 10:49:04 PM 31.6467 -83.6150 159° South 483 556 35,000 -400 Level Jacksonville Center
Sun 10:50:04 PM 31.5028 -83.5650 163° South 494 568 34,200 -756 Descending Jacksonville Center
Sun 10:51:03 PM 31.3736 -83.5131 161° South 494 568 33,500 -706 Descending Jacksonville Center
Sun 10:52:03 PM 31.2444 -83.4611 161° South 489 563 32,800 -650 Descending Jacksonville Center
Sun 10:53:03 PM 31.1258 -83.3828 151° Southeast 489 563 32,200 -700 Descending Jacksonville Center
Sun 10:54:03 PM 31.0050 -83.3022 150° Southeast 489 563 31,400 -744 Descending Jacksonville Center
Sun 10:55:04 PM 30.8861 -83.2242 151° Southeast 500 575 30,700 -650 Descending Jacksonville Center
Sun 10:56:03 PM 30.7800 -83.1514 149° Southeast 500 575 30,100 -655 Descending Jacksonville Center
Sun 10:57:03 PM 30.6611 -83.0714 150° Southeast 500 575 29,400 -700 Descending Jacksonville Center
Sun 10:58:03 PM 30.5442 -82.9964 151° Southeast 495 570 28,700 -700 Descending Jacksonville Center
Sun 10:59:03 PM 30.4294 -82.9214 151° Southeast 485 558 28,000 -700 Descending Jacksonville Center
Sun 11:00:03 PM 30.3125 -82.8469 151° Southeast 480 552 27,300 -600 Descending Jacksonville Center
Sun 11:01:03 PM 30.1997 -82.7700 149° Southeast 480 552 26,800 -550 Descending Jacksonville Center
Sun 11:02:03 PM 30.0764 -82.6908 151° Southeast 475 547 26,200 -545 Descending Jacksonville Center
Sun 11:03:04 PM 29.9656 -82.6217 152° Southeast 459 528 25,700 -500 Descending Jacksonville Center
Sun 11:04:03 PM 29.8569 -82.5500 150° Southeast 453 521 25,200 -504 Descending Jacksonville Center
Sun 11:05:03 PM 29.7481 -82.4811 151° Southeast 453 521 24,700 -500 Descending Jacksonville Center
Sun 11:06:03 PM 29.6433 -82.4147 151° Southeast 447 514 24,200 -496 Descending Jacksonville Center
Sun 11:07:04 PM 29.5367 -82.3458 151° Southeast 442 509 23,700 -496 Descending Jacksonville Center
Sun 11:08:04 PM 29.4342 -82.2797 151° Southeast 442 509 23,200 -1,462 Descending Jacksonville Center
Sun 11:09:03 PM 29.3314 -82.2161 152° Southeast 437 503 20,800 -2,370 Descending Jacksonville Center
Sun 11:10:03 PM 29.2311 -82.1525 151° Southeast 426 490 18,500 -2,200 Descending Jacksonville Center
Sun 11:11:03 PM 29.1389 -82.0961 152° Southeast 402 463 16,400 -2,182 Descending Jacksonville Center
Sun 11:12:04 PM 29.0486 -82.0375 150° Southeast 385 443 14,100 -2,281 Descending Jacksonville Center
Sun 11:13:04 PM 28.9606 -81.9789 150° Southeast 375 432 11,800 -1,563 Descending Jacksonville Center
Sun 11:14:03 PM 28.8914 -81.9344 151° Southeast 354 407 11,000 -403 Descending Jacksonville Center
Sun 11:15:03 PM 28.8531 -81.8447 116° Southeast 302 348 11,000 -50 Level Jacksonville Center
Sun 11:16:04 PM 28.8314 -81.7478 104° East 302 348 10,900 -800 Descending Jacksonville Center
Sun 11:17:03 PM 28.8097 -81.6461 104° East 302 348 9,400 -1,664 Descending Jacksonville Center
Sun 11:18:03 PM 28.7878 -81.5564 106° East 297 342 7,600 -1,700 Descending Jacksonville Center
Sun 11:19:03 PM 28.7597 -81.4739 111° Southeast 290 334 6,000 -1,000 Descending Jacksonville Center
Sun 11:20:03 PM 28.7172 -81.4083 126° Southeast 267 307 5,600 -750 Descending Jacksonville Center
Sun 11:21:03 PM 28.6750 -81.3544 132° Southeast 247 284 4,500 -900 Descending Jacksonville Center
Sun 11:22:03 PM 28.6367 -81.3006 129° Southeast 228 262 3,800 -857 Descending Jacksonville Center
Sun 11:23:09 PM 28.5667 -81.3000 180° South 206 237 2,700 -1,000 Descending Orlando TRACON
Sun 11:24:09 PM 28.5167 -81.3000 180° South 178 205 1,700 -900 Descending Orlando TRACON
Sun 11:25:09 PM 28.4833 -81.3000 180° South 120 138 900 -800 Descending Orlando TRACON
Sun 11:27:00 PM 28.4294 -81.3090 180° South  Level Estimated
Sun 11:34:00 PM 28.4294 -81.3090 180° South  Level Estimated
Sun 11:35:00 PM 28.4294 -81.3090 180° South  Level Estimated
Sun 11:36:00 PM 28.4294 -81.3090 180° South  Level Estimated
Sun 11:37:00 PM 28.4294 -81.3090 180° South  Level Estimated

Login

Don't have an account? Register now (free) for customized features, flight alerts, and more!